Latest Weather Observations for Albury

IDV60801

Issued at 4:12 pm EST Monday 26 September 2022 (issued every 10 minutes, with the page automatically refreshed every 10 minutes)

About weather observations | Map of weather stations | Latest weather observations for VIC | Other Formats
Station Details ID: 072160 Name: ALBURY AIRPORT AWS Lat: -36.07 Lon: 146.95 Height: 163.5 m
Data from the previous 72 hours. | See also: Recent months at Albury
Date/Time
EST
Temp
°C
App
Temp
°C
Dew
Point
°C
Rel
Hum
%
Delta-T
°C
Wind Press
QNH
hPa
Press
MSL
hPa
Rain since
9am
mm
Dir  Spd
km/h
Gust
km/h
Spd
kts
Gust
kts
26/04:00pm 14.5 12.0 10.9 79 1.9 ESE 15 22 8 12 1012.8 1012.9 0.0
26/03:30pm 14.6 13.3 12.5 87 1.2 SE 11 13 6 7 1013.5 1013.6 0.0
26/03:00pm 14.3 13.2 11.8 85 1.4 S 9 11 5 6 1014.0 1014.1 0.0
26/02:30pm 14.6 13.7 11.4 81 1.7 S 7 11 4 6 1014.5 1014.6 0.0
26/02:00pm 15.4 14.9 9.5 68 3.1 SSW 2 7 1 4 1014.7 1014.8 0.0
26/01:30pm 15.3 13.9 9.4 68 3.1 S 7 9 4 5 1014.8 1014.9 0.0
26/01:00pm 15.5 14.1 9.0 65 3.4 ENE 6 13 3 7 1015.0 1015.1 0.0
26/12:30pm 14.8 13.6 9.6 71 2.7 N 6 7 3 4 1015.9 1015.9 0.0
26/12:00pm 14.8 11.9 9.8 72 2.6 E 15 20 8 11 1015.6 1015.7 0.0
26/11:30am 15.0 12.5 9.6 70 2.8 ENE 13 20 7 11 1016.2 1016.2 0.0
26/11:00am 14.9 12.6 11.7 81 1.7 E 15 19 8 10 1016.8 1016.8 0.0
26/10:30am 13.1 11.5 10.3 83 1.5 SE 9 13 5 7 1017.5 1017.5 0.0
26/10:00am 13.4 12.2 10.4 82 1.6 SE 7 11 4 6 1018.0 1018.1 0.0
26/09:30am 13.5 13.0 10.7 83 1.5 SSE 4 7 2 4 1018.0 1018.1 0.0
26/09:00am 11.6 9.5 9.9 89 0.9 NW 11 13 6 7 1018.3 1018.4 0.0
26/08:30am 10.1 8.2 9.0 93 0.5 ESE 9 13 5 7 1017.3 1017.3 0.0
26/08:00am 10.1 9.2 9.2 94 0.4 SSE 4 7 2 4 1017.8 1017.8 0.0
26/07:30am 10.0 8.5 9.1 94 0.4 S 7 9 4 5 1017.6 1017.6 0.0
26/07:00am 9.6 8.4 9.5 99 0.1 SW 6 7 3 4 1017.1 1017.1 0.0
26/06:30am 9.1 8.9 9.0 99 0.0 CALM 0 0 0 0 1016.7 1016.7 0.0
26/06:00am 8.7 8.4 8.6 99 0.0 CALM 0 0 0 0 1016.2 1016.2 0.0
26/05:30am 8.9 6.9 8.5 97 0.2 NE 9 13 5 7 1016.1 1016.1 0.0
26/05:00am 9.1 7.6 8.3 95 0.4 SE 6 9 3 5 1016.2 1016.2 0.0
26/04:30am 8.7 8.2 7.9 95 0.4 CALM 0 0 0 0 1016.3 1016.3 0.0
26/04:00am 8.7 7.5 7.9 95 0.4 N 4 7 2 4 1016.4 1016.4 0.0
26/03:30am 9.0 7.1 7.6 91 0.7 ESE 7 9 4 5 1016.3 1016.3 0.0
26/03:00am 8.5 8.0 7.9 96 0.3 CALM 0 7 0 4 1016.5 1016.5 0.0
26/02:30am 8.8 8.4 8.4 97 0.2 CALM 0 6 0 3 1016.7 1016.7 0.0
26/02:00am 9.0 8.6 8.4 96 0.3 CALM 0 6 0 3 1017.0 1017.0 0.0
26/01:30am 8.6 8.3 8.5 99 0.0 CALM 0 0 0 0 1017.5 1017.5 0.0
26/01:00am 8.7 8.3 8.3 97 0.2 CALM 0 0 0 0 1017.7 1017.7 0.0
26/12:30am 8.5 7.3 8.1 97 0.2 N 4 7 2 4 1018.1 1018.2 0.0
26/12:00am 8.9 8.4 7.8 93 0.5 CALM 0 0 0 0 1018.0 1018.1 0.0
 
Date/Time
EST
Temp
°C
App
Temp
°C
Dew
Point
°C
Rel
Hum
%
Delta-T
°C
Wind Press
QNH
hPa
Press
MSL
hPa
Rain since
9am
mm
Dir  Spd
km/h
Gust
km/h
Spd
kts
Gust
kts
25/11:30pm 8.6 7.0 7.8 95 0.4 ENE 6 7 3 4 1018.1 1018.2 0.0
25/11:00pm 8.7 7.1 7.8 94 0.4 SE 6 9 3 5 1018.3 1018.4 0.0
25/10:30pm 9.2 8.0 8.1 93 0.5 ESE 4 9 2 5 1018.5 1018.6 0.0
25/10:00pm 9.0 8.5 7.8 92 0.6 CALM 0 0 0 0 1018.3 1018.4 0.0
25/09:30pm 9.1 8.6 7.9 92 0.6 CALM 0 0 0 0 1018.3 1018.4 0.0
25/09:00pm 9.8 9.3 7.9 88 0.9 CALM 0 0 0 0 1018.5 1018.6 0.0
25/08:30pm 9.8 9.3 7.7 87 1.0 CALM 0 4 0 2 1018.2 1018.3 0.0
25/08:00pm 10.0 8.3 7.6 85 1.2 NNW 6 7 3 4 1018.0 1018.1 0.0
25/07:30pm 11.1 9.5 8.0 81 1.5 N 6 7 3 4 1017.7 1017.7 0.0
25/07:00pm 11.4 8.7 7.5 77 1.9 NNW 11 11 6 6 1017.7 1017.7 0.0
25/06:30pm 12.3 9.9 7.0 70 2.6 NW 9 11 5 6 1017.2 1017.2 0.0
25/06:00pm 13.4 10.5 6.5 63 3.3 WNW 11 15 6 8 1017.0 1017.0 0.0
25/05:30pm 14.7 11.4 6.5 58 4.0 WNW 13 19 7 10 1016.9 1016.9 0.0
25/05:00pm 15.5 12.2 6.2 54 4.5 W 13 17 7 9 1016.5 1016.5 0.0
25/04:30pm 16.0 12.3 6.2 52 4.8 WNW 15 20 8 11 1016.4 1016.4 0.0
25/04:00pm 16.2 12.1 6.3 52 4.9 W 17 20 9 11 1016.5 1016.5 0.0
25/03:30pm 15.4 11.5 5.3 51 4.8 W 15 20 8 11 1016.4 1016.4 0.0
25/03:00pm 15.6 11.9 6.3 54 4.5 WSW 15 22 8 12 1016.4 1016.4 0.0
25/02:30pm 16.5 12.4 8.0 57 4.3 W 19 28 10 15 1016.4 1016.4 0.0
25/02:00pm 15.9 13.2 7.4 57 4.3 WSW 11 22 6 12 1016.2 1016.2 0.0
25/01:30pm 16.0 12.7 8.0 59 4.1 WSW 15 24 8 13 1016.6 1016.6 0.0
25/01:00pm 15.4 12.8 6.2 54 4.5 SSE 9 13 5 7 1016.5 1016.5 0.0
25/12:30pm 15.3 12.3 6.1 54 4.5 W 11 22 6 12 1016.8 1016.8 0.0
25/12:24pm 15.4 12.9 6.4 55 4.4 WSW 9 22 5 12 1016.9 1016.9 0.0
25/12:13pm 15.1 11.8 6.4 56 4.2 W 13 20 7 11 1017.2 1017.2 0.0
25/12:00pm 14.7 11.0 4.7 51 4.7 WNW 13 22 7 12 1017.2 1017.2 0.0
25/11:30am 14.8 11.7 7.4 61 3.7 WSW 13 19 7 10 1017.5 1017.5 0.0
25/11:00am 14.0 9.6 4.9 54 4.3 WSW 17 24 9 13 1017.9 1018.0 0.0
25/10:30am 13.7 9.7 6.8 63 3.4 WSW 17 22 9 12 1018.2 1018.3 0.0
25/10:00am 13.2 11.3 7.4 68 2.8 SW 7 13 4 7 1018.1 1018.2 0.0
25/09:30am 12.5 11.7 9.7 83 1.4 SE 4 7 2 4 1018.0 1018.1 0.0
25/09:00am 11.8 10.9 9.4 85 1.2 SE 4 7 2 4 1017.9 1018.0 0.0
25/08:30am 10.0 8.3 8.4 90 0.8 E 7 9 4 5 1018.0 1018.1 0.0
25/08:00am 9.2 8.8 8.3 94 0.4 CALM 0 0 0 0 1018.1 1018.2 0.0
25/07:30am 7.4 6.0 7.1 98 0.1 ENE 4 7 2 4 1018.1 1018.2 0.0
25/07:00am 5.5 3.7 5.4 99 0.0 NE 4 6 2 3 1017.7 1017.7 0.0
25/06:30am 3.8 2.4 3.7 99 0.0 CALM 0 0 0 0 1017.4 1017.4 0.0
25/06:00am 2.9 1.4 2.8 99 0.0 CALM 0 0 0 0 1016.9 1016.9 0.0
25/05:30am 3.7 1.2 3.6 99 0.0 NE 6 7 3 4 1016.2 1016.2 0.0
25/05:00am 3.7 1.9 3.6 99 0.0 NNW 2 7 1 4 1016.1 1016.1 0.0
25/04:30am 4.0 2.7 3.9 99 0.0 CALM 0 0 0 0 1015.5 1015.6 0.0
25/04:00am 4.3 3.0 4.2 99 0.0 CALM 0 0 0 0 1015.8 1015.8 0.0
25/03:30am 4.3 3.0 4.2 99 0.0 CALM 0 0 0 0 1015.9 1015.9 0.0
25/03:00am 5.1 4.0 5.0 99 0.0 CALM 0 0 0 0 1016.0 1016.0 0.0
25/02:30am 5.4 3.2 5.3 99 0.0 NNW 6 7 3 4 1016.0 1016.0 0.0
25/02:00am 5.6 4.5 5.3 98 0.1 CALM 0 0 0 0 1016.2 1016.2 0.0
25/01:30am 5.8 4.8 5.7 99 0.0 CALM 0 0 0 0 1016.1 1016.1 0.0
25/01:00am 6.2 5.3 5.9 98 0.1 CALM 0 0 0 0 1016.2 1016.2 0.0
25/12:30am 6.8 5.0 5.6 92 0.5 NE 4 7 2 4 1016.3 1016.3 0.0
25/12:00am 8.4 6.8 6.2 86 1.0 E 4 6 2 3 1016.4 1016.4 0.0
 
Date/Time
EST
Temp
°C
App
Temp
°C
Dew
Point
°C
Rel
Hum
%
Delta-T
°C
Wind Press
QNH
hPa
Press
MSL
hPa
Rain since
9am
mm
Dir  Spd
km/h
Gust
km/h
Spd
kts
Gust
kts
24/11:30pm 7.8 5.1 5.6 86 1.0 NNW 9 11 5 6 1016.1 1016.1 0.0
24/11:00pm 10.1 8.4 6.1 76 1.9 SW 4 7 2 4 1016.1 1016.1 0.0
24/10:30pm 9.7 6.3 6.1 78 1.7 WNW 13 17 7 9 1016.0 1016.0 0.0
24/10:00pm 9.8 6.6 6.7 81 1.5 NW 13 17 7 9 1015.6 1015.7 0.0
24/09:30pm 10.4 7.3 7.1 80 1.6 NW 13 17 7 9 1015.4 1015.5 0.0
24/09:00pm 10.4 7.6 7.1 80 1.6 NNW 11 13 6 7 1015.0 1015.1 0.0
24/08:30pm 10.6 8.3 7.3 80 1.6 NW 9 13 5 7 1014.8 1014.9 0.0
24/08:00pm 11.8 8.7 7.3 74 2.2 WNW 13 19 7 10 1014.5 1014.6 0.0
24/07:30pm 12.4 8.4 8.1 75 2.1 W 19 24 10 13 1014.1 1014.2 0.0
24/07:00pm 13.0 9.4 8.3 73 2.4 WNW 17 26 9 14 1013.9 1014.0 0.0
24/06:30pm 13.7 9.8 8.7 72 2.5 WNW 19 28 10 15 1013.5 1013.6 0.0
24/06:00pm 14.4 11.2 8.6 68 3.0 NW 15 22 8 12 1013.1 1013.2 0.0
24/05:30pm 15.2 10.7 8.4 64 3.5 WNW 22 30 12 16 1012.8 1012.9 0.0
24/05:00pm 15.9 11.4 8.6 62 3.8 WNW 22 32 12 17 1012.5 1012.5 0.0
24/04:30pm 16.4 11.9 8.6 60 4.0 WNW 22 30 12 16 1012.1 1012.1 0.0
24/04:00pm 16.8 12.1 9.2 61 4.0 WNW 24 32 13 17 1011.9 1011.9 0.0
24/03:30pm 17.4 12.4 9.6 60 4.1 WNW 26 35 14 19 1012.0 1012.0 0.0
24/03:00pm 17.6 12.8 10.2 62 4.0 W 26 37 14 20 1011.9 1011.9 0.0
24/02:30pm 17.7 12.6 10.6 63 3.8 WNW 28 37 15 20 1011.7 1011.7 0.0
24/02:22pm 18.1 14.1 11.7 66 3.5 WNW 24 35 13 19 1011.7 1011.7 0.0
24/02:09pm 18.2 13.3 11.3 64 3.8 W 28 37 15 20 1011.7 1011.7 0.0
24/02:03pm 18.0 13.4 11.1 64 3.8 W 26 37 14 20 1011.7 1011.7 0.0
24/02:00pm 18.4 13.8 11.2 63 3.9 W 26 37 14 20 1011.7 1011.7 0.0
24/01:39pm 18.7 14.6 11.5 63 4.0 W 24 32 13 17 1011.7 1011.7 0.0
24/01:30pm 18.8 15.8 12.5 67 3.5 WNW 20 35 11 19 1011.8 1011.8 0.0
24/01:00pm 18.5 15.5 12.5 68 3.4 W 20 28 11 15 1012.0 1012.0 0.0
24/12:30pm 17.2 13.8 12.5 74 2.6 W 22 32 12 17 1012.3 1012.3 0.0
24/12:00pm 17.1 14.4 12.8 76 2.4 WNW 19 26 10 14 1012.6 1012.6 0.0
24/11:30am 17.1 15.7 13.4 79 2.1 W 13 17 7 9 1012.6 1012.6 0.0
24/11:00am 16.8 15.3 11.9 73 2.7 WNW 11 15 6 8 1012.8 1012.9 0.0
24/10:30am 16.5 16.9 11.4 72 2.8 CALM 0 0 0 0 1013.1 1013.2 0.0
24/10:00am 15.5 14.9 11.7 78 2.1 W 6 9 3 5 1013.2 1013.3 0.0
24/09:30am 15.3 15.5 13.0 86 1.3 NNE 4 7 2 4 1013.0 1013.1 0.0
24/09:00am 14.3 14.0 12.7 90 0.9 ESE 6 9 3 5 1013.0 1013.1 35.6
24/08:36am 13.7 13.6 13.2 97 0.3 SE 6 7 3 4 1013.0 1013.1 35.6
24/08:30am 13.0 12.5 12.8 99 0.1 SSE 7 9 4 5 1013.1 1013.2 35.6
24/08:18am 13.6 13.4 13.1 97 0.3 SE 6 9 3 5 1013.0 1013.1 35.6
24/08:16am 13.4 13.1 13.2 99 0.1 SE 7 9 4 5 1013.0 1013.1 35.6
24/08:00am 13.0 12.5 12.8 99 0.1 SSE 7 9 4 5 1013.0 1013.1 35.6
24/07:30am 11.8 11.0 11.6 99 0.1 SSE 7 9 4 5 1012.8 1012.9 35.6
24/07:00am 11.6 10.7 11.4 99 0.1 SE 7 7 4 4 1012.5 1012.5 35.6
24/06:56am 11.5 10.6 11.3 99 0.1 SE 7 7 4 4 1012.5 1012.5 35.6
24/06:30am 11.4 10.6 11.2 99 0.1 S 6 7 3 4 1012.4 1012.4 35.6
24/06:21am 11.4 10.6 11.2 99 0.1 SSE 6 7 3 4 1012.4 1012.4 35.6
24/06:00am 11.2 10.8 11.0 99 0.1 SW 4 7 2 4 1012.2 1012.2 35.6
24/05:30am 11.6 12.0 11.4 99 0.1 CALM 0 0 0 0 1012.0 1012.0 35.6
24/05:00am 11.8 11.9 11.6 99 0.1 WNW 2 6 1 3 1011.9 1011.9 35.6
24/04:30am 11.8 12.3 11.6 99 0.1 CALM 0 0 0 0 1011.5 1011.5 35.6
24/04:00am 11.9 10.7 11.7 99 0.1 W 9 13 5 7 1011.4 1011.4 35.6
24/03:30am 11.9 10.0 11.7 99 0.1 W 13 17 7 9 1011.5 1011.5 35.6
24/03:00am 12.1 11.0 11.9 99 0.1 W 9 13 5 7 1011.4 1011.4 35.6
24/02:36am 12.0 10.5 11.8 99 0.1 W 11 17 6 9 1011.6 1011.6 35.6
24/02:30am 11.8 10.2 11.6 99 0.1 WSW 11 15 6 8 1011.5 1011.5 35.6
24/02:00am 11.8 9.8 11.6 99 0.1 WSW 13 17 7 9 1011.7 1011.7 35.6
24/01:30am 12.1 10.6 11.9 99 0.1 W 11 15 6 8 1011.8 1011.8 35.6
24/01:00am 12.7 11.0 12.5 99 0.1 W 13 15 7 8 1011.8 1011.8 35.6
24/12:30am 13.4 12.3 13.2 99 0.1 SE 11 17 6 9 1011.7 1011.7 35.6
24/12:00am 13.2 12.8 13.0 99 0.1 SE 7 13 4 7 1012.2 1012.2 35.6
 
Date/Time
EST
Temp
°C
App
Temp
°C
Dew
Point
°C
Rel
Hum
%
Delta-T
°C
Wind Press
QNH
hPa
Press
MSL
hPa
Rain since
9am
mm
Dir  Spd
km/h
Gust
km/h
Spd
kts
Gust
kts
23/11:30pm 13.2 11.7 13.0 99 0.1 SE 13 24 7 13 1012.0 1012.0 35.6
23/11:00pm 13.1 13.6 12.9 99 0.1 ESE 2 9 1 5 1012.4 1012.4 35.6
23/10:30pm 13.6 12.6 13.4 99 0.1 SSE 11 20 6 11 1012.6 1012.6 35.4
23/10:16pm 14.0 12.5 13.2 95 0.4 SW 13 24 7 13 1013.0 1013.1 34.8
23/10:07pm 14.1 12.9 13.9 99 0.1 WSW 13 22 7 12 1013.2 1013.3 34.4
23/10:00pm 13.9 12.2 13.7 99 0.1 WNW 15 24 8 13 1013.3 1013.4 33.6
23/09:37pm 14.1 10.4 13.9 99 0.1 NW 26 41 14 22 1013.2 1013.3 27.2
23/09:30pm 14.1 12.5 13.9 99 0.1 N 15 30 8 16 1013.3 1013.4 22.6
23/09:25pm 14.4 14.4 14.2 99 0.1 N 7 22 4 12 1012.9 1013.0 20.6
23/09:20pm 14.6 14.7 14.4 99 0.1 NNE 7 13 4 7 1012.7 1012.8 19.4
23/09:10pm 14.9 14.7 14.7 99 0.1 E 9 11 5 6 1012.4 1012.4 17.8
23/09:00pm 14.9 14.3 14.7 99 0.1 NE 11 15 6 8 1012.6 1012.6 14.4
23/08:37pm 15.1 14.3 15.1 100 0.0 N 13 20 7 11 1012.8 1012.9 6.0
23/08:35pm 15.3 14.9 15.3 100 0.0 N 11 19 6 10 1012.8 1012.9 3.2
23/08:30pm 15.7 16.2 15.5 99 0.1 NE 7 11 4 6 1012.8 1012.9 0.4
23/08:23pm 15.8 16.9 15.5 98 0.2 E 4 7 2 4 1012.8 1012.9 0.4
23/08:12pm 15.8 17.2 15.3 97 0.3 SE 2 9 1 5 1012.8 1012.9 0.2
23/08:00pm 15.8 17.1 15.2 96 0.3 S 2 7 1 4 1012.8 1012.9 0.2
23/07:30pm 16.0 16.9 15.0 94 0.6 ENE 4 7 2 4 1012.8 1012.9 0.2
23/07:00pm 15.9 15.9 15.3 96 0.4 S 9 13 5 7 1012.5 1012.5 0.2
23/06:30pm 16.2 16.2 15.1 93 0.6 SE 9 13 5 7 1012.2 1012.2 0.2
23/06:00pm 16.6 17.2 15.3 92 0.8 SSE 6 7 3 4 1012.7 1012.8 0.2
23/05:30pm 17.8 18.5 15.6 87 1.3 SE 6 7 3 4 1012.5 1012.5 0.2
23/05:00pm 18.3 19.5 15.9 86 1.4 S 4 7 2 4 1012.5 1012.5 0.0
23/04:30pm 19.0 19.6 15.9 82 1.9 WSW 7 9 4 5 1012.4 1012.4 0.0

Other formats

Comma delimited format used in spreadsheet applications
http://www.bom.gov.au/fwo/IDV60801/IDV60801.95896.axf

JavaScript Object Notation format (JSON) in row-major order
http://www.bom.gov.au/fwo/IDV60801/IDV60801.95896.json

Data quality

Most of these data are generated automatically and are frequently updated. Quality checks on data are not normally performed. It is possible for incorrect values to appear. Refer to information at About Latest Weather Observations and please check the disclaimer before using these data.